sensor_id;sensor_type;location;lat;lon;timestamp;temperature;humidity
20998;DHT22;10657;51.276;6.390;2022-11-21T00:02:01;7.00;99.90
20998;DHT22;10657;51.276;6.390;2022-11-21T00:04:27;7.10;99.90
20998;DHT22;10657;51.276;6.390;2022-11-21T00:06:54;7.10;99.90
20998;DHT22;10657;51.276;6.390;2022-11-21T00:09:21;7.00;99.90
20998;DHT22;10657;51.276;6.390;2022-11-21T00:11:50;7.10;99.90
20998;DHT22;10657;51.276;6.390;2022-11-21T00:14:16;7.10;99.90
20998;DHT22;10657;51.276;6.390;2022-11-21T00:16:44;7.10;99.90
20998;DHT22;10657;51.276;6.390;2022-11-21T00:19:11;7.10;99.90
20998;DHT22;10657;51.276;6.390;2022-11-21T00:21:37;7.00;99.90
20998;DHT22;10657;51.276;6.390;2022-11-21T00:24:04;7.00;99.90
20998;DHT22;10657;51.276;6.390;2022-11-21T00:26:31;7.00;99.90
20998;DHT22;10657;51.276;6.390;2022-11-21T00:28:57;7.00;99.90
20998;DHT22;10657;51.276;6.390;2022-11-21T00:31:24;7.00;99.90
20998;DHT22;10657;51.276;6.390;2022-11-21T00:33:51;7.00;99.90
20998;DHT22;10657;51.276;6.390;2022-11-21T00:36:17;7.00;99.90
20998;DHT22;10657;51.276;6.390;2022-11-21T00:38:44;6.90;99.90
20998;DHT22;10657;51.276;6.390;2022-11-21T00:41:11;6.90;99.90
20998;DHT22;10657;51.276;6.390;2022-11-21T00:43:37;6.90;99.90
20998;DHT22;10657;51.276;6.390;2022-11-21T00:46:04;6.90;99.90
20998;DHT22;10657;51.276;6.390;2022-11-21T00:48:31;6.90;99.90
20998;DHT22;10657;51.276;6.390;2022-11-21T00:50:58;6.90;99.90
20998;DHT22;10657;51.276;6.390;2022-11-21T00:53:26;6.90;99.90
20998;DHT22;10657;51.276;6.390;2022-11-21T00:55:52;6.90;99.90
20998;DHT22;10657;51.276;6.390;2022-11-21T00:58:19;6.90;99.90
20998;DHT22;10657;51.276;6.390;2022-11-21T01:00:45;6.80;99.90
20998;DHT22;10657;51.276;6.390;2022-11-21T01:03:12;6.80;99.90
20998;DHT22;10657;51.276;6.390;2022-11-21T01:05:39;6.80;99.90
20998;DHT22;10657;51.276;6.390;2022-11-21T01:08:05;6.80;99.90
20998;DHT22;10657;51.276;6.390;2022-11-21T01:10:33;6.70;99.90
20998;DHT22;10657;51.276;6.390;2022-11-21T01:13:00;6.80;99.90
20998;DHT22;10657;51.276;6.390;2022-11-21T01:15:27;6.80;99.90
20998;DHT22;10657;51.276;6.390;2022-11-21T01:17:54;6.80;99.90
20998;DHT22;10657;51.276;6.390;2022-11-21T01:20:20;6.70;99.90
20998;DHT22;10657;51.276;6.390;2022-11-21T01:22:47;6.70;99.90
20998;DHT22;10657;51.276;6.390;2022-11-21T01:25:13;6.70;99.90
20998;DHT22;10657;51.276;6.390;2022-11-21T01:27:40;6.70;99.90
20998;DHT22;10657;51.276;6.390;2022-11-21T01:30:07;6.80;99.90
20998;DHT22;10657;51.276;6.390;2022-11-21T01:32:34;6.70;99.90
20998;DHT22;10657;51.276;6.390;2022-11-21T01:35:00;6.70;99.90
20998;DHT22;10657;51.276;6.390;2022-11-21T01:37:27;6.70;99.90
20998;DHT22;10657;51.276;6.390;2022-11-21T01:39:53;6.70;99.90
20998;DHT22;10657;51.276;6.390;2022-11-21T01:42:20;6.70;99.90
20998;DHT22;10657;51.276;6.390;2022-11-21T01:44:51;6.70;99.90
20998;DHT22;10657;51.276;6.390;2022-11-21T01:47:18;6.70;99.90
20998;DHT22;10657;51.276;6.390;2022-11-21T01:49:46;6.70;99.90
20998;DHT22;10657;51.276;6.390;2022-11-21T01:52:27;6.50;99.90
20998;DHT22;10657;51.276;6.390;2022-11-21T01:55:00;6.60;99.90
20998;DHT22;10657;51.276;6.390;2022-11-21T01:57:40;6.60;99.90
20998;DHT22;10657;51.276;6.390;2022-11-21T02:00:12;6.40;99.90
20998;DHT22;10657;51.276;6.390;2022-11-21T02:02:45;6.40;99.90
20998;DHT22;10657;51.276;6.390;2022-11-21T02:05:22;6.40;99.90
20998;DHT22;10657;51.276;6.390;2022-11-21T02:07:55;6.50;99.90
20998;DHT22;10657;51.276;6.390;2022-11-21T02:10:22;6.50;99.90
20998;DHT22;10657;51.276;6.390;2022-11-21T02:12:52;6.50;99.90
20998;DHT22;10657;51.276;6.390;2022-11-21T02:15:21;6.40;99.90
20998;DHT22;10657;51.276;6.390;2022-11-21T02:17:49;6.40;99.90
20998;DHT22;10657;51.276;6.390;2022-11-21T02:20:18;6.40;99.90
20998;DHT22;10657;51.276;6.390;2022-11-21T02:25:34;6.30;99.90
20998;DHT22;10657;51.276;6.390;2022-11-21T02:28:07;6.30;99.90
20998;DHT22;10657;51.276;6.390;2022-11-21T02:30:39;6.30;99.90
20998;DHT22;10657;51.276;6.390;2022-11-21T02:33:06;6.30;99.90
20998;DHT22;10657;51.276;6.390;2022-11-21T02:35:33;6.20;99.90
20998;DHT22;10657;51.276;6.390;2022-11-21T02:38:04;6.20;99.90
20998;DHT22;10657;51.276;6.390;2022-11-21T02:40:34;6.20;99.90
20998;DHT22;10657;51.276;6.390;2022-11-21T02:43:18;6.30;99.90
20998;DHT22;10657;51.276;6.390;2022-11-21T02:45:47;6.20;99.90
20998;DHT22;10657;51.276;6.390;2022-11-21T02:48:14;6.30;99.90
20998;DHT22;10657;51.276;6.390;2022-11-21T02:50:45;6.20;99.90
20998;DHT22;10657;51.276;6.390;2022-11-21T02:53:17;6.20;99.90
20998;DHT22;10657;51.276;6.390;2022-11-21T02:55:44;6.20;99.90
20998;DHT22;10657;51.276;6.390;2022-11-21T02:58:11;6.20;99.90
20998;DHT22;10657;51.276;6.390;2022-11-21T03:00:39;6.20;99.90
20998;DHT22;10657;51.276;6.390;2022-11-21T03:03:06;6.20;99.90
20998;DHT22;10657;51.276;6.390;2022-11-21T03:05:34;6.10;99.90
20998;DHT22;10657;51.276;6.390;2022-11-21T03:08:00;6.20;99.90
20998;DHT22;10657;51.276;6.390;2022-11-21T03:10:27;6.30;99.90
20998;DHT22;10657;51.276;6.390;2022-11-21T03:12:53;6.30;99.90
20998;DHT22;10657;51.276;6.390;2022-11-21T03:15:32;6.30;99.90
20998;DHT22;10657;51.276;6.390;2022-11-21T03:18:00;6.20;99.90
20998;DHT22;10657;51.276;6.390;2022-11-21T03:20:33;6.20;99.90
20998;DHT22;10657;51.276;6.390;2022-11-21T03:23:00;6.30;99.90
20998;DHT22;10657;51.276;6.390;2022-11-21T03:25:27;6.30;99.90
20998;DHT22;10657;51.276;6.390;2022-11-21T03:27:54;6.20;99.90
20998;DHT22;10657;51.276;6.390;2022-11-21T03:30:22;6.20;99.90
20998;DHT22;10657;51.276;6.390;2022-11-21T03:32:49;6.20;99.90
20998;DHT22;10657;51.276;6.390;2022-11-21T03:35:16;6.30;99.90
20998;DHT22;10657;51.276;6.390;2022-11-21T03:37:43;6.30;99.90
20998;DHT22;10657;51.276;6.390;2022-11-21T03:40:10;6.30;99.90
20998;DHT22;10657;51.276;6.390;2022-11-21T03:42:37;6.30;99.90
20998;DHT22;10657;51.276;6.390;2022-11-21T03:45:04;6.30;99.90
20998;DHT22;10657;51.276;6.390;2022-11-21T03:47:31;6.30;99.90
20998;DHT22;10657;51.276;6.390;2022-11-21T03:49:57;6.30;99.90
20998;DHT22;10657;51.276;6.390;2022-11-21T03:52:24;6.30;99.90
20998;DHT22;10657;51.276;6.390;2022-11-21T03:54:50;6.20;99.90
20998;DHT22;10657;51.276;6.390;2022-11-21T03:57:17;6.10;99.90
20998;DHT22;10657;51.276;6.390;2022-11-21T03:59:44;6.30;99.90
20998;DHT22;10657;51.276;6.390;2022-11-21T04:02:11;6.30;99.90
20998;DHT22;10657;51.276;6.390;2022-11-21T04:04:37;6.30;99.90
20998;DHT22;10657;51.276;6.390;2022-11-21T04:07:04;6.20;99.90
20998;DHT22;10657;51.276;6.390;2022-11-21T04:09:31;6.20;99.90
20998;DHT22;10657;51.276;6.390;2022-11-21T04:11:57;6.20;99.90
20998;DHT22;10657;51.276;6.390;2022-11-21T04:14:24;6.20;99.90
20998;DHT22;10657;51.276;6.390;2022-11-21T04:16:51;6.30;99.90
20998;DHT22;10657;51.276;6.390;2022-11-21T04:19:17;6.20;99.90
20998;DHT22;10657;51.276;6.390;2022-11-21T04:21:44;6.20;99.90
20998;DHT22;10657;51.276;6.390;2022-11-21T04:24:10;6.10;99.90
20998;DHT22;10657;51.276;6.390;2022-11-21T04:26:37;6.20;99.90
20998;DHT22;10657;51.276;6.390;2022-11-21T04:29:04;6.20;99.90
20998;DHT22;10657;51.276;6.390;2022-11-21T04:31:30;6.20;99.90
20998;DHT22;10657;51.276;6.390;2022-11-21T04:33:57;6.20;99.90
20998;DHT22;10657;51.276;6.390;2022-11-21T04:36:24;6.10;99.90
20998;DHT22;10657;51.276;6.390;2022-11-21T04:38:51;6.10;99.90
20998;DHT22;10657;51.276;6.390;2022-11-21T04:41:17;6.10;99.90
20998;DHT22;10657;51.276;6.390;2022-11-21T04:43:44;6.20;99.90
20998;DHT22;10657;51.276;6.390;2022-11-21T04:46:10;6.30;99.90
20998;DHT22;10657;51.276;6.390;2022-11-21T04:48:37;6.20;99.90
20998;DHT22;10657;51.276;6.390;2022-11-21T04:51:03;6.20;99.90
20998;DHT22;10657;51.276;6.390;2022-11-21T04:53:30;6.20;99.90
20998;DHT22;10657;51.276;6.390;2022-11-21T04:55:57;6.20;99.90
20998;DHT22;10657;51.276;6.390;2022-11-21T04:58:23;6.20;99.90
20998;DHT22;10657;51.276;6.390;2022-11-21T05:00:50;6.10;99.90
20998;DHT22;10657;51.276;6.390;2022-11-21T05:03:17;6.10;99.90
20998;DHT22;10657;51.276;6.390;2022-11-21T05:05:43;6.10;99.90
20998;DHT22;10657;51.276;6.390;2022-11-21T05:08:10;6.20;99.90
20998;DHT22;10657;51.276;6.390;2022-11-21T05:10:36;6.20;99.90
20998;DHT22;10657;51.276;6.390;2022-11-21T05:13:23;6.20;99.90
20998;DHT22;10657;51.276;6.390;2022-11-21T05:15:55;6.00;99.90
20998;DHT22;10657;51.276;6.390;2022-11-21T05:18:22;6.00;99.90
20998;DHT22;10657;51.276;6.390;2022-11-21T05:20:49;6.00;99.90
20998;DHT22;10657;51.276;6.390;2022-11-21T05:23:15;6.00;99.90
20998;DHT22;10657;51.276;6.390;2022-11-21T05:25:42;6.00;99.90
20998;DHT22;10657;51.276;6.390;2022-11-21T05:28:09;6.10;99.90
20998;DHT22;10657;51.276;6.390;2022-11-21T05:30:35;6.10;99.90
20998;DHT22;10657;51.276;6.390;2022-11-21T05:33:03;6.20;99.90
20998;DHT22;10657;51.276;6.390;2022-11-21T05:35:30;6.20;99.90
20998;DHT22;10657;51.276;6.390;2022-11-21T05:37:57;6.20;99.90
20998;DHT22;10657;51.276;6.390;2022-11-21T05:40:24;6.20;99.90
20998;DHT22;10657;51.276;6.390;2022-11-21T05:42:51;6.20;99.90
20998;DHT22;10657;51.276;6.390;2022-11-21T05:45:36;6.20;99.90
20998;DHT22;10657;51.276;6.390;2022-11-21T05:48:03;6.30;99.90
20998;DHT22;10657;51.276;6.390;2022-11-21T05:50:34;6.40;99.90
20998;DHT22;10657;51.276;6.390;2022-11-21T05:53:04;6.40;99.90
20998;DHT22;10657;51.276;6.390;2022-11-21T05:55:34;6.40;99.90
20998;DHT22;10657;51.276;6.390;2022-11-21T05:58:00;6.40;99.90
20998;DHT22;10657;51.276;6.390;2022-11-21T06:00:28;6.40;99.90
20998;DHT22;10657;51.276;6.390;2022-11-21T06:02:54;6.40;99.90
20998;DHT22;10657;51.276;6.390;2022-11-21T06:05:40;6.50;99.90
20998;DHT22;10657;51.276;6.390;2022-11-21T06:08:06;6.40;99.90
20998;DHT22;10657;51.276;6.390;2022-11-21T06:10:33;6.40;99.90
20998;DHT22;10657;51.276;6.390;2022-11-21T06:13:00;6.50;99.90
20998;DHT22;10657;51.276;6.390;2022-11-21T06:15:28;6.30;99.90
20998;DHT22;10657;51.276;6.390;2022-11-21T06:17:54;6.40;99.90
20998;DHT22;10657;51.276;6.390;2022-11-21T06:20:21;6.40;99.90
20998;DHT22;10657;51.276;6.390;2022-11-21T06:22:48;6.30;99.90
20998;DHT22;10657;51.276;6.390;2022-11-21T06:25:14;6.50;99.90
20998;DHT22;10657;51.276;6.390;2022-11-21T06:27:41;6.40;99.90
20998;DHT22;10657;51.276;6.390;2022-11-21T06:30:08;6.40;99.90
20998;DHT22;10657;51.276;6.390;2022-11-21T06:32:36;6.40;99.90
20998;DHT22;10657;51.276;6.390;2022-11-21T06:35:03;6.40;99.90
20998;DHT22;10657;51.276;6.390;2022-11-21T06:37:30;6.40;99.90
20998;DHT22;10657;51.276;6.390;2022-11-21T06:39:57;6.40;99.90
20998;DHT22;10657;51.276;6.390;2022-11-21T06:42:24;6.40;99.90
20998;DHT22;10657;51.276;6.390;2022-11-21T06:44:50;6.40;99.90
20998;DHT22;10657;51.276;6.390;2022-11-21T06:47:18;6.50;99.90
20998;DHT22;10657;51.276;6.390;2022-11-21T06:49:45;6.50;99.90
20998;DHT22;10657;51.276;6.390;2022-11-21T06:52:11;6.40;99.90
20998;DHT22;10657;51.276;6.390;2022-11-21T06:54:38;6.40;99.90
20998;DHT22;10657;51.276;6.390;2022-11-21T06:57:05;6.30;99.90
20998;DHT22;10657;51.276;6.390;2022-11-21T06:59:31;6.40;99.90
20998;DHT22;10657;51.276;6.390;2022-11-21T07:01:58;6.30;99.90
20998;DHT22;10657;51.276;6.390;2022-11-21T07:04:25;6.30;99.90
20998;DHT22;10657;51.276;6.390;2022-11-21T07:06:52;6.40;99.90
20998;DHT22;10657;51.276;6.390;2022-11-21T07:09:18;6.40;99.90
20998;DHT22;10657;51.276;6.390;2022-11-21T07:12:01;6.40;99.90
20998;DHT22;10657;51.276;6.390;2022-11-21T07:14:46;6.40;99.90
20998;DHT22;10657;51.276;6.390;2022-11-21T07:17:13;6.40;99.90
20998;DHT22;10657;51.276;6.390;2022-11-21T07:19:40;6.40;99.90
20998;DHT22;10657;51.276;6.390;2022-11-21T07:22:06;6.40;99.90
20998;DHT22;10657;51.276;6.390;2022-11-21T07:24:33;6.50;99.90
20998;DHT22;10657;51.276;6.390;2022-11-21T07:27:00;6.50;99.90
20998;DHT22;10657;51.276;6.390;2022-11-21T07:29:27;6.50;99.90
20998;DHT22;10657;51.276;6.390;2022-11-21T07:31:55;6.50;99.90
20998;DHT22;10657;51.276;6.390;2022-11-21T07:34:21;6.50;99.90
20998;DHT22;10657;51.276;6.390;2022-11-21T07:36:48;6.50;99.90
20998;DHT22;10657;51.276;6.390;2022-11-21T07:39:14;6.50;99.90
20998;DHT22;10657;51.276;6.390;2022-11-21T07:41:41;6.50;99.90
20998;DHT22;10657;51.276;6.390;2022-11-21T07:44:07;6.40;99.90
20998;DHT22;10657;51.276;6.390;2022-11-21T07:46:34;6.50;99.90
20998;DHT22;10657;51.276;6.390;2022-11-21T07:49:01;6.50;99.90
20998;DHT22;10657;51.276;6.390;2022-11-21T07:51:29;6.50;99.90
20998;DHT22;10657;51.276;6.390;2022-11-21T07:53:56;6.50;99.90
20998;DHT22;10657;51.276;6.390;2022-11-21T07:56:22;6.50;99.90
20998;DHT22;10657;51.276;6.390;2022-11-21T07:58:52;6.50;99.90
20998;DHT22;10657;51.276;6.390;2022-11-21T08:01:18;6.50;99.90
20998;DHT22;10657;51.276;6.390;2022-11-21T08:03:45;6.50;99.90
20998;DHT22;10657;51.276;6.390;2022-11-21T08:06:12;6.50;99.90
20998;DHT22;10657;51.276;6.390;2022-11-21T08:08:39;6.50;99.90
20998;DHT22;10657;51.276;6.390;2022-11-21T08:11:06;6.50;99.90
20998;DHT22;10657;51.276;6.390;2022-11-21T08:13:33;6.50;99.90
20998;DHT22;10657;51.276;6.390;2022-11-21T08:16:03;6.50;99.90
20998;DHT22;10657;51.276;6.390;2022-11-21T08:18:30;6.50;99.90
20998;DHT22;10657;51.276;6.390;2022-11-21T08:21:00;6.50;99.90
20998;DHT22;10657;51.276;6.390;2022-11-21T08:23:26;6.50;99.90
20998;DHT22;10657;51.276;6.390;2022-11-21T08:25:53;6.50;99.90
20998;DHT22;10657;51.276;6.390;2022-11-21T08:28:19;6.50;99.90
20998;DHT22;10657;51.276;6.390;2022-11-21T08:30:46;6.50;99.90
20998;DHT22;10657;51.276;6.390;2022-11-21T08:33:13;6.50;99.90
20998;DHT22;10657;51.276;6.390;2022-11-21T08:35:39;6.50;99.90
20998;DHT22;10657;51.276;6.390;2022-11-21T08:38:07;6.60;99.90
20998;DHT22;10657;51.276;6.390;2022-11-21T08:40:35;6.60;99.90
20998;DHT22;10657;51.276;6.390;2022-11-21T08:43:04;6.60;99.90
20998;DHT22;10657;51.276;6.390;2022-11-21T08:45:32;6.60;99.90
20998;DHT22;10657;51.276;6.390;2022-11-21T08:47:59;6.60;99.90
20998;DHT22;10657;51.276;6.390;2022-11-21T08:50:26;6.70;99.90
20998;DHT22;10657;51.276;6.390;2022-11-21T08:52:59;6.70;99.90
20998;DHT22;10657;51.276;6.390;2022-11-21T08:55:27;6.70;99.90
20998;DHT22;10657;51.276;6.390;2022-11-21T08:57:53;6.80;99.90
20998;DHT22;10657;51.276;6.390;2022-11-21T09:00:20;6.80;99.90
20998;DHT22;10657;51.276;6.390;2022-11-21T09:02:47;6.80;99.90
20998;DHT22;10657;51.276;6.390;2022-11-21T09:05:14;6.80;99.90
20998;DHT22;10657;51.276;6.390;2022-11-21T09:07:40;6.80;99.90
20998;DHT22;10657;51.276;6.390;2022-11-21T09:10:07;6.90;99.90
20998;DHT22;10657;51.276;6.390;2022-11-21T09:12:34;6.90;99.90
20998;DHT22;10657;51.276;6.390;2022-11-21T09:15:01;6.90;99.90
20998;DHT22;10657;51.276;6.390;2022-11-21T09:17:46;6.90;99.90
20998;DHT22;10657;51.276;6.390;2022-11-21T09:20:38;6.90;99.90
20998;DHT22;10657;51.276;6.390;2022-11-21T09:23:07;6.90;99.90
20998;DHT22;10657;51.276;6.390;2022-11-21T09:25:34;6.90;99.90
20998;DHT22;10657;51.276;6.390;2022-11-21T09:28:01;6.90;99.90
20998;DHT22;10657;51.276;6.390;2022-11-21T09:30:28;6.90;99.90
20998;DHT22;10657;51.276;6.390;2022-11-21T09:33:05;6.90;99.90
20998;DHT22;10657;51.276;6.390;2022-11-21T09:35:32;6.90;99.90
20998;DHT22;10657;51.276;6.390;2022-11-21T09:37:59;6.90;99.90
20998;DHT22;10657;51.276;6.390;2022-11-21T09:40:28;6.90;99.90
20998;DHT22;10657;51.276;6.390;2022-11-21T09:45:45;7.00;99.90
20998;DHT22;10657;51.276;6.390;2022-11-21T09:48:18;7.00;99.90
20998;DHT22;10657;51.276;6.390;2022-11-21T09:50:53;7.10;99.90
20998;DHT22;10657;51.276;6.390;2022-11-21T09:53:27;7.10;99.90
20998;DHT22;10657;51.276;6.390;2022-11-21T09:56:06;7.20;99.90
20998;DHT22;10657;51.276;6.390;2022-11-21T09:58:41;7.20;99.90
20998;DHT22;10657;51.276;6.390;2022-11-21T10:01:13;7.20;99.90
20998;DHT22;10657;51.276;6.390;2022-11-21T10:03:48;7.20;99.90
20998;DHT22;10657;51.276;6.390;2022-11-21T10:06:24;7.30;99.90
20998;DHT22;10657;51.276;6.390;2022-11-21T10:09:07;7.20;99.90
20998;DHT22;10657;51.276;6.390;2022-11-21T10:14:58;7.30;99.90
20998;DHT22;10657;51.276;6.390;2022-11-21T10:17:46;7.30;99.90
20998;DHT22;10657;51.276;6.390;2022-11-21T10:26:05;7.40;99.90
20998;DHT22;10657;51.276;6.390;2022-11-21T10:31:20;7.50;99.90
20998;DHT22;10657;51.276;6.390;2022-11-21T10:33:50;7.60;99.90
20998;DHT22;10657;51.276;6.390;2022-11-21T10:36:32;7.60;99.90
20998;DHT22;10657;51.276;6.390;2022-11-21T10:39:19;7.70;99.90
20998;DHT22;10657;51.276;6.390;2022-11-21T10:41:57;7.80;99.90
20998;DHT22;10657;51.276;6.390;2022-11-21T10:44:28;7.90;99.90
20998;DHT22;10657;51.276;6.390;2022-11-21T10:47:17;7.90;99.90
20998;DHT22;10657;51.276;6.390;2022-11-21T10:55:20;7.90;99.90
20998;DHT22;10657;51.276;6.390;2022-11-21T10:57:48;8.00;99.90
20998;DHT22;10657;51.276;6.390;2022-11-21T11:00:21;8.00;99.90
20998;DHT22;10657;51.276;6.390;2022-11-21T11:08:08;8.20;99.90
20998;DHT22;10657;51.276;6.390;2022-11-21T11:10:41;8.30;99.90
20998;DHT22;10657;51.276;6.390;2022-11-21T11:13:16;8.30;99.90
20998;DHT22;10657;51.276;6.390;2022-11-21T11:16:18;8.30;99.90
20998;DHT22;10657;51.276;6.390;2022-11-21T11:18:59;8.30;99.90
20998;DHT22;10657;51.276;6.390;2022-11-21T11:21:40;8.30;99.90
20998;DHT22;10657;51.276;6.390;2022-11-21T11:29:17;8.50;99.90
20998;DHT22;10657;51.276;6.390;2022-11-21T11:32:11;8.60;99.90
20998;DHT22;10657;51.276;6.390;2022-11-21T11:34:58;8.60;99.90
20998;DHT22;10657;51.276;6.390;2022-11-21T11:37:42;8.70;99.90
20998;DHT22;10657;51.276;6.390;2022-11-21T11:40:29;8.70;99.90
20998;DHT22;10657;51.276;6.390;2022-11-21T11:49:07;8.90;99.90
20998;DHT22;10657;51.276;6.390;2022-11-21T11:51:54;9.00;99.90
20998;DHT22;10657;51.276;6.390;2022-11-21T11:54:44;9.00;99.90
20998;DHT22;10657;51.276;6.390;2022-11-21T11:57:12;9.10;99.90
20998;DHT22;10657;51.276;6.390;2022-11-21T11:59:45;9.20;99.90
20998;DHT22;10657;51.276;6.390;2022-11-21T12:02:28;9.20;99.90
20998;DHT22;10657;51.276;6.390;2022-11-21T12:05:06;9.20;99.90
20998;DHT22;10657;51.276;6.390;2022-11-21T12:07:41;9.10;99.90
20998;DHT22;10657;51.276;6.390;2022-11-21T12:10:39;9.00;99.90
20998;DHT22;10657;51.276;6.390;2022-11-21T12:13:27;9.10;99.90
20998;DHT22;10657;51.276;6.390;2022-11-21T12:15:57;9.20;99.90
20998;DHT22;10657;51.276;6.390;2022-11-21T12:18:59;9.30;99.90
20998;DHT22;10657;51.276;6.390;2022-11-21T12:21:28;9.40;99.90
20998;DHT22;10657;51.276;6.390;2022-11-21T12:23:56;9.70;99.90
20998;DHT22;10657;51.276;6.390;2022-11-21T12:27:19;9.80;99.90
20998;DHT22;10657;51.276;6.390;2022-11-21T12:29:52;9.80;99.90
20998;DHT22;10657;51.276;6.390;2022-11-21T12:32:49;9.80;99.90
20998;DHT22;10657;51.276;6.390;2022-11-21T12:35:43;9.80;99.90
20998;DHT22;10657;51.276;6.390;2022-11-21T12:38:42;9.80;99.90
20998;DHT22;10657;51.276;6.390;2022-11-21T12:41:29;9.90;99.90
20998;DHT22;10657;51.276;6.390;2022-11-21T12:52:31;9.80;99.90
20998;DHT22;10657;51.276;6.390;2022-11-21T12:55:34;9.80;99.90
20998;DHT22;10657;51.276;6.390;2022-11-21T13:06:00;9.60;99.90
20998;DHT22;10657;51.276;6.390;2022-11-21T13:08:30;9.60;99.90
20998;DHT22;10657;51.276;6.390;2022-11-21T13:14:00;9.70;99.90
20998;DHT22;10657;51.276;6.390;2022-11-21T13:16:29;9.60;99.90
20998;DHT22;10657;51.276;6.390;2022-11-21T13:21:42;9.60;99.90
20998;DHT22;10657;51.276;6.390;2022-11-21T13:24:09;9.60;99.90
20998;DHT22;10657;51.276;6.390;2022-11-21T13:29:10;9.60;99.90
20998;DHT22;10657;51.276;6.390;2022-11-21T13:31:38;9.70;99.90
20998;DHT22;10657;51.276;6.390;2022-11-21T13:34:31;9.70;99.90
20998;DHT22;10657;51.276;6.390;2022-11-21T13:37:00;9.70;99.90
20998;DHT22;10657;51.276;6.390;2022-11-21T13:39:29;9.70;99.90
20998;DHT22;10657;51.276;6.390;2022-11-21T13:42:04;9.70;99.90
20998;DHT22;10657;51.276;6.390;2022-11-21T13:44:50;9.70;99.90
20998;DHT22;10657;51.276;6.390;2022-11-21T13:47:54;9.60;99.90
20998;DHT22;10657;51.276;6.390;2022-11-21T13:53:41;9.60;99.90
20998;DHT22;10657;51.276;6.390;2022-11-21T13:56:24;9.60;99.90
20998;DHT22;10657;51.276;6.390;2022-11-21T13:59:11;9.60;99.90
20998;DHT22;10657;51.276;6.390;2022-11-21T14:09:50;9.50;99.90
20998;DHT22;10657;51.276;6.390;2022-11-21T14:12:33;9.50;99.90
20998;DHT22;10657;51.276;6.390;2022-11-21T14:15:30;9.40;99.90
20998;DHT22;10657;51.276;6.390;2022-11-21T14:18:00;9.40;99.90
20998;DHT22;10657;51.276;6.390;2022-11-21T14:20:48;9.50;99.90
20998;DHT22;10657;51.276;6.390;2022-11-21T14:23:17;9.40;99.90
20998;DHT22;10657;51.276;6.390;2022-11-21T14:25:53;9.30;99.90
20998;DHT22;10657;51.276;6.390;2022-11-21T14:31:05;9.20;99.90
20998;DHT22;10657;51.276;6.390;2022-11-21T14:33:45;9.20;99.90
20998;DHT22;10657;51.276;6.390;2022-11-21T14:36:21;9.10;99.90
20998;DHT22;10657;51.276;6.390;2022-11-21T14:39:00;9.10;99.90
20998;DHT22;10657;51.276;6.390;2022-11-21T14:41:53;9.20;99.90
20998;DHT22;10657;51.276;6.390;2022-11-21T14:44:21;9.20;99.90
20998;DHT22;10657;51.276;6.390;2022-11-21T14:47:00;9.10;99.90
20998;DHT22;10657;51.276;6.390;2022-11-21T14:49:28;9.00;99.90
20998;DHT22;10657;51.276;6.390;2022-11-21T14:52:03;9.00;99.90
20998;DHT22;10657;51.276;6.390;2022-11-21T14:54:52;8.90;99.90
20998;DHT22;10657;51.276;6.390;2022-11-21T14:57:41;9.00;99.90
20998;DHT22;10657;51.276;6.390;2022-11-21T15:00:13;8.90;99.90
20998;DHT22;10657;51.276;6.390;2022-11-21T15:03:00;8.80;99.90
20998;DHT22;10657;51.276;6.390;2022-11-21T15:05:30;8.80;99.90
20998;DHT22;10657;51.276;6.390;2022-11-21T15:08:22;9.00;99.90
20998;DHT22;10657;51.276;6.390;2022-11-21T15:11:09;8.90;99.90
20998;DHT22;10657;51.276;6.390;2022-11-21T15:13:37;8.80;99.90
20998;DHT22;10657;51.276;6.390;2022-11-21T15:16:24;8.70;99.90
20998;DHT22;10657;51.276;6.390;2022-11-21T15:18:50;8.70;99.90
20998;DHT22;10657;51.276;6.390;2022-11-21T15:21:17;8.70;99.90
20998;DHT22;10657;51.276;6.390;2022-11-21T15:23:44;8.70;99.90
20998;DHT22;10657;51.276;6.390;2022-11-21T15:26:40;8.80;99.90
20998;DHT22;10657;51.276;6.390;2022-11-21T15:29:18;8.70;99.90
20998;DHT22;10657;51.276;6.390;2022-11-21T15:32:08;8.60;99.90
20998;DHT22;10657;51.276;6.390;2022-11-21T15:34:41;8.60;99.90
20998;DHT22;10657;51.276;6.390;2022-11-21T15:37:15;8.60;99.90
20998;DHT22;10657;51.276;6.390;2022-11-21T15:39:44;8.60;99.90
20998;DHT22;10657;51.276;6.390;2022-11-21T15:42:48;8.60;99.90
20998;DHT22;10657;51.276;6.390;2022-11-21T15:47:46;8.60;99.90
20998;DHT22;10657;51.276;6.390;2022-11-21T15:50:13;8.60;99.90
20998;DHT22;10657;51.276;6.390;2022-11-21T15:52:47;8.50;99.90
20998;DHT22;10657;51.276;6.390;2022-11-21T15:55:25;8.50;99.90
20998;DHT22;10657;51.276;6.390;2022-11-21T15:57:54;8.50;99.90
20998;DHT22;10657;51.276;6.390;2022-11-21T16:00:21;8.50;99.90
20998;DHT22;10657;51.276;6.390;2022-11-21T16:02:48;8.40;99.90
20998;DHT22;10657;51.276;6.390;2022-11-21T16:05:15;8.40;99.90
20998;DHT22;10657;51.276;6.390;2022-11-21T16:07:41;8.50;99.90
20998;DHT22;10657;51.276;6.390;2022-11-21T16:10:08;8.50;99.90
20998;DHT22;10657;51.276;6.390;2022-11-21T16:12:45;8.50;99.90
20998;DHT22;10657;51.276;6.390;2022-11-21T16:15:12;8.50;99.90
20998;DHT22;10657;51.276;6.390;2022-11-21T16:17:39;8.50;99.90
20998;DHT22;10657;51.276;6.390;2022-11-21T16:20:07;8.50;99.90
20998;DHT22;10657;51.276;6.390;2022-11-21T16:22:34;8.50;99.90
20998;DHT22;10657;51.276;6.390;2022-11-21T16:25:00;8.60;99.90
20998;DHT22;10657;51.276;6.390;2022-11-21T16:27:27;8.40;99.90
20998;DHT22;10657;51.276;6.390;2022-11-21T16:29:54;8.50;99.90
20998;DHT22;10657;51.276;6.390;2022-11-21T16:32:20;8.50;99.90
20998;DHT22;10657;51.276;6.390;2022-11-21T16:34:47;8.40;99.90
20998;DHT22;10657;51.276;6.390;2022-11-21T16:37:13;8.50;99.90
20998;DHT22;10657;51.276;6.390;2022-11-21T16:39:40;8.70;99.90
20998;DHT22;10657;51.276;6.390;2022-11-21T16:42:09;8.60;99.90
20998;DHT22;10657;51.276;6.390;2022-11-21T16:44:36;8.70;99.90
20998;DHT22;10657;51.276;6.390;2022-11-21T16:47:03;8.80;99.90
20998;DHT22;10657;51.276;6.390;2022-11-21T16:49:34;8.90;99.90
20998;DHT22;10657;51.276;6.390;2022-11-21T16:52:01;8.80;99.90
20998;DHT22;10657;51.276;6.390;2022-11-21T16:54:27;8.70;99.90
20998;DHT22;10657;51.276;6.390;2022-11-21T16:56:54;8.60;99.90
20998;DHT22;10657;51.276;6.390;2022-11-21T16:59:21;8.60;99.90
20998;DHT22;10657;51.276;6.390;2022-11-21T17:01:47;8.70;99.90
20998;DHT22;10657;51.276;6.390;2022-11-21T17:04:14;8.50;99.90
20998;DHT22;10657;51.276;6.390;2022-11-21T17:06:54;8.60;99.90
20998;DHT22;10657;51.276;6.390;2022-11-21T17:09:21;8.60;99.90
20998;DHT22;10657;51.276;6.390;2022-11-21T17:11:47;8.50;99.90
20998;DHT22;10657;51.276;6.390;2022-11-21T17:14:14;8.50;99.90
20998;DHT22;10657;51.276;6.390;2022-11-21T17:16:40;8.50;99.90
20998;DHT22;10657;51.276;6.390;2022-11-21T17:19:10;8.60;99.90
20998;DHT22;10657;51.276;6.390;2022-11-21T17:21:37;8.60;99.90
20998;DHT22;10657;51.276;6.390;2022-11-21T17:24:03;8.60;99.90
20998;DHT22;10657;51.276;6.390;2022-11-21T17:26:30;8.50;99.90
20998;DHT22;10657;51.276;6.390;2022-11-21T17:28:59;8.60;99.90
20998;DHT22;10657;51.276;6.390;2022-11-21T17:31:26;8.70;99.90